Readsville, Missouri
Current Conditions -  °F | °C
As of 11:53 PM on Saturday 22 Nov 2014 (Local Time) from KJEF Reporting Station
Clear Clear  
Wind Chill: 51°   Ceiling: Unl
Heat Index: 51°   Visibility: 10mi
Dew Point: 48°   Wind: 7mph
Humidity: 89%   Direction: 120°ESE
Pressure: 29.8"   Gusts: NA
Location:  38.7662°N, 91.6923°W
Report Text: KJEF 230553Z AUTO 12006KT 10SM CLR 11/09 A2980 RMK AO2 SLP080 T01060089 10139 20100 401610083 58021
Loading
Personal Weather Stations






























Interactive Weather Map New forecast layout! Learn more

10-Day Weather Forecast

Advertisements
Track Severe Weather on mobile